createdAt,value
2019-03-28T00:04:11.293Z,29.20
2019-03-28T00:07:34.004Z,30.10
2019-03-28T00:14:17.387Z,31.23
2019-03-28T00:17:43.718Z,31.83
2019-03-28T00:24:47.397Z,31.27
2019-03-28T00:31:12.304Z,31.50
2019-03-28T00:34:11.474Z,38.07
2019-03-28T00:40:54.190Z,41.00
2019-03-28T00:51:11.023Z,35.50
2019-03-28T00:54:30.443Z,38.57
2019-03-28T00:57:58.879Z,27.70
2019-03-28T01:04:47.208Z,38.83
2019-03-28T01:12:03.848Z,28.20
2019-03-28T01:15:13.015Z,32.20
2019-03-28T01:18:34.759Z,42.33
2019-03-28T01:25:15.322Z,34.40
2019-03-28T01:28:39.708Z,38.37
2019-03-28T01:35:22.019Z,40.67
2019-03-28T01:38:45.164Z,35.77
2019-03-28T01:41:46.127Z,35.77
2019-03-28T01:45:08.326Z,33.80
2019-03-28T01:48:08.958Z,30.77
2019-03-28T01:51:25.957Z,30.30
2019-03-28T01:54:36.039Z,35.37
2019-03-28T02:01:36.829Z,34.70
2019-03-28T02:05:17.243Z,31.37
2019-03-28T02:12:29.928Z,30.40
2019-03-28T02:15:33.529Z,36.10
2019-03-28T02:21:45.872Z,35.97
2019-03-28T02:25:16.756Z,43.60
2019-03-28T02:35:13.821Z,30.20
2019-03-28T02:38:28.959Z,43.27
2019-03-28T02:41:37.355Z,43.97
2019-03-28T02:54:53.013Z,40.33
2019-03-28T02:58:01.289Z,43.53
2019-03-28T03:01:21.048Z,31.63
2019-03-28T03:04:24.558Z,35.27
2019-03-28T03:11:06.871Z,39.47
2019-03-28T03:14:31.614Z,37.10
2019-03-28T03:17:46.841Z,39.73
2019-03-28T03:24:30.087Z,35.90
2019-03-28T03:27:55.974Z,38.60
2019-03-28T03:30:39.126Z,39.33
2019-03-28T03:34:27.005Z,42.40
2019-03-28T03:37:38.461Z,38.60
2019-03-28T03:41:00.980Z,36.90
2019-03-28T03:44:10.560Z,41.57
2019-03-28T03:54:21.859Z,40.83
2019-03-28T04:01:05.769Z,41.03
2019-03-28T04:04:27.709Z,40.67
2019-03-28T04:13:30.017Z,42.67
2019-03-28T04:20:11.824Z,38.40
2019-03-28T04:30:07.950Z,46.70
2019-03-28T04:32:59.808Z,41.70
2019-03-28T04:36:29.746Z,42.13
2019-03-28T04:39:32.440Z,41.53
2019-03-28T04:46:37.691Z,47.23
2019-03-28T04:49:35.840Z,45.53
2019-03-28T04:56:48.171Z,45.30
2019-03-28T04:59:55.595Z,40.00
2019-03-28T05:03:14.501Z,45.97
2019-03-28T05:06:15.607Z,36.30
2019-03-28T05:13:20.268Z,40.77
2019-03-28T05:15:51.522Z,49.67
2019-03-28T05:18:22.668Z,41.53
2019-03-28T05:20:53.755Z,42.50
2019-03-28T05:23:25.025Z,39.40
2019-03-28T05:25:57.184Z,41.47
2019-03-28T05:28:28.359Z,44.87
2019-03-28T05:30:59.394Z,50.47
2019-03-28T05:33:30.419Z,43.53
2019-03-28T05:36:04.361Z,42.87
2019-03-28T05:38:35.522Z,51.53
2019-03-28T05:41:06.479Z,42.97
2019-03-28T05:43:37.670Z,60.73
2019-03-28T05:46:08.762Z,57.47
2019-03-28T05:48:40.845Z,43.77
2019-03-28T05:51:11.945Z,49.20
2019-03-28T05:53:46.555Z,48.83
2019-03-28T05:56:17.806Z,36.23
2019-03-28T05:58:48.967Z,45.10
2019-03-28T06:01:19.995Z,53.77
2019-03-28T06:03:51.186Z,40.80
2019-03-28T06:06:22.490Z,40.93
2019-03-28T06:08:53.731Z,47.33
2019-03-28T06:11:24.569Z,43.23
2019-03-28T06:13:56.695Z,48.77
2019-03-28T06:16:27.874Z,45.97
2019-03-28T06:18:59.122Z,40.40
2019-03-28T06:21:30.530Z,48.17
2019-03-28T06:24:01.985Z,46.63
2019-03-28T06:26:33.619Z,47.10
2019-03-28T06:29:05.077Z,40.00
2019-03-28T06:31:37.040Z,45.07
2019-03-28T06:34:08.547Z,42.07
2019-03-28T06:36:40.487Z,40.90
2019-03-28T06:39:12.850Z,47.50
2019-03-28T06:41:45.012Z,44.30
2019-03-28T06:44:16.760Z,41.67
2019-03-28T06:46:48.276Z,49.67
2019-03-28T06:49:19.815Z,40.03
2019-03-28T06:51:52.641Z,46.27
2019-03-28T06:54:24.355Z,52.07
2019-03-28T06:56:59.054Z,45.57
2019-03-28T06:59:37.522Z,42.63
2019-03-28T07:02:10.105Z,41.57
2019-03-28T07:04:42.812Z,41.17
2019-03-28T07:07:18.438Z,39.33
2019-03-28T07:09:49.854Z,44.23
2019-03-28T07:12:24.321Z,33.50
2019-03-28T07:14:55.981Z,51.23
2019-03-28T07:17:27.789Z,37.77
2019-03-28T07:19:59.165Z,38.97
2019-03-28T07:22:30.443Z,41.10
2019-03-28T07:25:02.337Z,36.80
2019-03-28T07:27:34.311Z,44.03
2019-03-28T07:30:06.981Z,32.53
2019-03-28T07:32:43.496Z,35.10
2019-03-28T07:35:16.003Z,33.20
2019-03-28T07:37:48.176Z,29.97
2019-03-28T07:40:20.507Z,28.80
2019-03-28T07:42:52.816Z,39.43
2019-03-28T07:45:24.510Z,30.67
2019-03-28T07:47:56.886Z,31.40
2019-03-28T07:50:29.070Z,32.00
2019-03-28T07:53:03.278Z,33.27
2019-03-28T07:55:36.710Z,35.40
2019-03-28T07:58:09.195Z,36.60
2019-03-28T08:00:40.621Z,42.20
2019-03-28T08:03:13.027Z,46.13
2019-03-28T08:05:47.541Z,40.07
2019-03-28T08:08:19.453Z,28.00
2019-03-28T08:10:51.494Z,29.73
2019-03-28T08:13:24.314Z,25.33
2019-03-28T08:16:01.028Z,27.60
2019-03-28T08:18:51.439Z,30.43
2019-03-28T08:21:23.401Z,28.37
2019-03-28T08:23:55.338Z,31.83
2019-03-28T08:26:30.082Z,37.07
2019-03-28T08:29:01.691Z,29.47
2019-03-28T08:31:34.443Z,31.50
2019-03-28T08:34:06.404Z,31.33
2019-03-28T08:36:39.976Z,34.40
2019-03-28T08:39:21.538Z,28.20
2019-03-28T08:41:54.872Z,28.73
2019-03-28T08:44:27.335Z,32.03
2019-03-28T08:47:00.943Z,28.63
2019-03-28T08:49:32.555Z,32.37
2019-03-28T08:52:04.896Z,33.40
2019-03-28T08:54:37.188Z,22.17
2019-03-28T08:57:13.626Z,29.90
2019-03-28T08:59:48.204Z,25.73
2019-03-28T09:02:27.214Z,26.67
2019-03-28T09:04:58.667Z,25.00
2019-03-28T09:07:35.077Z,28.77
2019-03-28T09:10:11.654Z,29.00
2019-03-28T09:12:43.976Z,20.40
2019-03-28T09:15:17.266Z,18.80
2019-03-28T09:17:54.389Z,22.23
2019-03-28T09:20:26.464Z,21.23
2019-03-28T09:23:06.101Z,19.13
2019-03-28T09:25:43.300Z,20.97
2019-03-28T09:28:12.819Z,20.77
2019-03-28T09:30:49.626Z,20.80
2019-03-28T09:33:19.112Z,26.87
2019-03-28T09:35:54.826Z,21.97
2019-03-28T09:38:28.108Z,18.23
2019-03-28T09:41:00.238Z,17.67
2019-03-28T09:43:35.411Z,15.73
2019-03-28T09:46:09.601Z,17.43
2019-03-28T09:48:41.996Z,20.57
2019-03-28T09:51:13.640Z,16.23
2019-03-28T09:53:47.902Z,16.83
2019-03-28T09:56:19.872Z,14.23
2019-03-28T09:58:53.319Z,14.10
2019-03-28T10:01:25.204Z,12.57
2019-03-28T10:03:57.110Z,16.50
2019-03-28T10:06:33.282Z,21.07
2019-03-28T10:09:07.448Z,14.83
2019-03-28T10:11:39.241Z,21.70
2019-03-28T10:14:10.665Z,21.20
2019-03-28T10:16:45.407Z,16.40
2019-03-28T10:19:19.322Z,7.40
2019-03-28T10:22:11.672Z,10.30
2019-03-28T10:24:44.622Z,15.00
2019-03-28T10:27:19.024Z,9.80
2019-03-28T10:29:51.240Z,7.13
2019-03-28T10:32:25.775Z,5.50
2019-03-28T10:34:58.524Z,9.90
2019-03-28T10:37:30.635Z,16.00
2019-03-28T10:40:02.752Z,11.87
2019-03-28T10:42:35.961Z,7.07
2019-03-28T10:45:09.400Z,3.50
2019-03-28T10:47:42.891Z,5.47
2019-03-28T10:50:15.747Z,5.20
2019-03-28T10:52:48.875Z,7.50
2019-03-28T10:55:21.582Z,7.67
2019-03-28T10:57:53.470Z,6.23
2019-03-28T11:00:25.915Z,5.93
2019-03-28T11:03:02.615Z,6.63
2019-03-28T11:05:34.517Z,12.97
2019-03-28T11:08:07.922Z,6.20
2019-03-28T11:10:40.347Z,7.83
2019-03-28T11:13:13.946Z,7.73
2019-03-28T11:15:45.861Z,12.47
2019-03-28T11:18:23.905Z,9.70
2019-03-28T11:21:02.422Z,7.33
2019-03-28T11:23:34.427Z,5.70
2019-03-28T11:26:08.262Z,9.13
2019-03-28T11:28:40.143Z,10.50
2019-03-28T11:31:11.876Z,10.87
2019-03-28T11:33:43.368Z,11.83
2019-03-28T11:36:15.056Z,10.47
2019-03-28T11:38:54.874Z,8.63
2019-03-28T11:41:34.682Z,12.13
2019-03-28T11:44:07.028Z,4.60
2019-03-28T11:46:40.136Z,9.13
2019-03-28T11:49:12.641Z,4.87
2019-03-28T11:51:45.200Z,10.17
2019-03-28T11:54:18.196Z,8.90
2019-03-28T11:56:50.648Z,6.30
2019-03-28T11:59:22.915Z,5.57
2019-03-28T12:02:00.473Z,6.67
2019-03-28T12:04:29.413Z,6.27
2019-03-28T12:07:03.901Z,12.20
2019-03-28T12:09:36.307Z,8.20
2019-03-28T12:12:12.155Z,8.70
2019-03-28T12:14:47.628Z,12.23
2019-03-28T12:17:21.117Z,8.30
2019-03-28T12:19:56.689Z,6.80
2019-03-28T12:22:33.033Z,6.50
2019-03-28T12:25:07.449Z,9.80
2019-03-28T12:27:40.333Z,8.30
2019-03-28T12:30:15.714Z,6.00
2019-03-28T12:33:01.174Z,8.07
2019-03-28T12:35:30.392Z,5.80
2019-03-28T12:38:04.746Z,15.20
2019-03-28T12:40:41.686Z,11.37
2019-03-28T12:43:13.842Z,12.53
2019-03-28T12:45:45.539Z,10.97
2019-03-28T12:48:18.587Z,11.90
2019-03-28T12:51:04.366Z,10.73
2019-03-28T12:53:36.640Z,8.70
2019-03-28T12:56:12.342Z,15.07
2019-03-28T12:58:43.482Z,11.77
2019-03-28T13:01:20.367Z,12.27
2019-03-28T13:03:52.682Z,10.30
2019-03-28T13:06:27.441Z,12.63
2019-03-28T13:08:59.320Z,14.43
2019-03-28T13:11:31.935Z,11.37
2019-03-28T13:14:04.164Z,10.17
2019-03-28T13:16:38.227Z,16.83
2019-03-28T13:19:11.217Z,10.57
2019-03-28T13:21:44.986Z,12.80
2019-03-28T13:24:17.841Z,10.33
2019-03-28T13:26:49.968Z,10.60
2019-03-28T13:29:23.476Z,10.47
2019-03-28T13:31:59.917Z,10.53
2019-03-28T13:34:32.941Z,9.70
2019-03-28T13:37:08.422Z,11.73
2019-03-28T13:39:43.841Z,11.93
2019-03-28T13:42:16.598Z,14.23
2019-03-28T13:44:50.016Z,7.50
2019-03-28T13:47:22.493Z,8.40
2019-03-28T13:49:55.211Z,11.70
2019-03-28T13:52:28.312Z,11.00
2019-03-28T13:55:01.284Z,9.93
2019-03-28T13:57:34.611Z,11.27
2019-03-28T14:00:08.407Z,10.27
2019-03-28T14:02:39.970Z,9.60
2019-03-28T14:05:15.184Z,7.83
2019-03-28T14:07:47.001Z,9.43
2019-03-28T14:10:26.122Z,13.23
2019-03-28T14:13:02.742Z,14.20
2019-03-28T14:15:35.307Z,12.67
2019-03-28T14:18:07.547Z,14.77
2019-03-28T14:20:39.407Z,15.17
2019-03-28T14:23:12.562Z,15.27
2019-03-28T14:25:45.754Z,15.57
2019-03-28T14:28:17.876Z,18.13
2019-03-28T14:30:49.663Z,12.33
2019-03-28T14:33:27.076Z,15.23
2019-03-28T14:35:58.537Z,11.90
2019-03-28T14:38:32.217Z,9.93
2019-03-28T14:41:14.572Z,11.97
2019-03-28T14:43:47.902Z,17.13
2019-03-28T14:46:20.499Z,17.07
2019-03-28T14:49:03.738Z,16.93
2019-03-28T14:51:38.786Z,13.20
2019-03-28T14:54:11.642Z,15.17
2019-03-28T14:56:44.944Z,15.33
2019-03-28T14:59:17.223Z,14.17
2019-03-28T15:01:49.482Z,11.23
2019-03-28T15:04:21.463Z,14.33
2019-03-28T15:07:07.054Z,12.33
2019-03-28T15:09:37.343Z,12.70
2019-03-28T15:12:09.407Z,19.40
2019-03-28T15:14:42.797Z,13.87
2019-03-28T15:17:14.892Z,12.20
2019-03-28T15:19:49.219Z,15.90
2019-03-28T15:22:27.204Z,13.63
2019-03-28T15:25:00.594Z,11.50
2019-03-28T15:27:33.231Z,13.07
2019-03-28T15:30:05.876Z,13.13
2019-03-28T15:32:40.691Z,12.67
2019-03-28T15:35:13.138Z,17.83
2019-03-28T15:37:48.527Z,14.23
2019-03-28T15:40:20.234Z,13.13
2019-03-28T15:42:52.358Z,11.83
2019-03-28T15:45:25.485Z,10.93
2019-03-28T15:47:57.356Z,11.13
2019-03-28T15:50:29.654Z,16.77
2019-03-28T15:53:01.984Z,12.20
2019-03-28T15:55:35.157Z,13.00
2019-03-28T15:58:07.687Z,11.53
2019-03-28T16:00:41.603Z,15.20
2019-03-28T16:03:16.046Z,12.30
2019-03-28T16:05:57.433Z,18.00
2019-03-28T16:08:21.422Z,10.87
2019-03-28T16:10:53.722Z,13.33
2019-03-28T16:13:27.466Z,12.10
2019-03-28T16:16:03.092Z,13.60
2019-03-28T16:18:35.453Z,14.17
2019-03-28T16:21:07.764Z,13.30
2019-03-28T16:23:42.882Z,13.17
2019-03-28T16:26:15.003Z,14.53
2019-03-28T16:28:46.404Z,13.67
2019-03-28T16:31:19.667Z,20.60
2019-03-28T16:33:51.708Z,15.00
2019-03-28T16:36:23.523Z,14.40
2019-03-28T16:38:57.793Z,16.53
2019-03-28T16:41:30.103Z,17.47
2019-03-28T16:44:02.728Z,16.07
2019-03-28T16:46:34.582Z,15.80
2019-03-28T16:49:18.939Z,18.23
2019-03-28T16:51:51.659Z,21.07
2019-03-28T16:54:23.603Z,15.40
2019-03-28T16:56:55.429Z,15.13
2019-03-28T16:59:27.429Z,17.23
2019-03-28T17:01:58.798Z,14.43
2019-03-28T17:04:30.961Z,20.53
2019-03-28T17:07:03.172Z,15.40
2019-03-28T17:09:37.709Z,15.27
2019-03-28T17:12:10.627Z,14.03
2019-03-28T17:14:44.290Z,22.87
2019-03-28T17:17:15.841Z,16.50
2019-03-28T17:19:48.433Z,15.90
2019-03-28T17:22:21.179Z,20.20
2019-03-28T17:24:53.964Z,9.73
2019-03-28T17:27:25.770Z,20.13
2019-03-28T17:30:00.523Z,13.93
2019-03-28T17:32:32.215Z,13.93
2019-03-28T17:35:04.277Z,23.23
2019-03-28T17:37:36.861Z,21.13
2019-03-28T17:40:09.003Z,20.60
2019-03-28T17:42:41.014Z,13.70
2019-03-28T17:45:13.944Z,11.90
2019-03-28T17:47:47.115Z,13.13
2019-03-28T17:50:19.064Z,19.93
2019-03-28T17:52:54.898Z,16.07
2019-03-28T17:55:27.009Z,12.43
2019-03-28T17:57:59.405Z,14.40
2019-03-28T18:00:31.209Z,12.70
2019-03-28T18:03:09.589Z,14.00
2019-03-28T18:05:40.608Z,15.77
2019-03-28T18:08:12.596Z,14.70
2019-03-28T18:10:44.460Z,26.77
2019-03-28T18:13:18.334Z,17.17
2019-03-28T18:15:50.189Z,11.13
2019-03-28T18:18:21.495Z,15.23
2019-03-28T18:20:53.168Z,12.90
2019-03-28T18:23:24.447Z,18.37
2019-03-28T18:25:56.090Z,10.17
2019-03-28T18:28:31.329Z,16.00
2019-03-28T18:31:01.852Z,16.00
2019-03-28T18:33:44.936Z,12.23
2019-03-28T18:36:16.379Z,15.63
2019-03-28T18:38:47.798Z,21.57
2019-03-28T18:41:19.321Z,15.63
2019-03-28T18:43:50.883Z,15.87
2019-03-28T18:46:22.521Z,16.77
2019-03-28T18:48:53.863Z,16.07
2019-03-28T18:51:25.045Z,12.57
2019-03-28T18:53:57.329Z,16.57
2019-03-28T18:56:28.951Z,15.97
2019-03-28T18:59:00.143Z,13.03
2019-03-28T19:01:31.930Z,29.17
2019-03-28T19:04:07.403Z,55.50
2019-03-28T19:06:38.676Z,23.70
2019-03-28T19:09:10.147Z,15.63
2019-03-28T19:11:41.389Z,17.00
2019-03-28T19:14:13.559Z,15.43
2019-03-28T19:16:48.105Z,15.80
2019-03-28T19:19:20.847Z,13.23
2019-03-28T19:21:55.752Z,16.07
2019-03-28T19:24:26.518Z,13.90
2019-03-28T19:26:58.039Z,12.97
2019-03-28T19:29:29.496Z,14.43
2019-03-28T19:32:01.066Z,14.57
2019-03-28T19:34:33.494Z,14.27
2019-03-28T19:37:05.400Z,19.17
2019-03-28T19:39:37.196Z,16.00
2019-03-28T19:42:08.736Z,17.07
2019-03-28T19:44:40.308Z,21.07
2019-03-28T19:47:12.863Z,13.83
2019-03-28T19:49:45.179Z,17.67
2019-03-28T19:52:16.404Z,13.50
2019-03-28T19:54:47.786Z,14.07
2019-03-28T19:57:19.596Z,17.97
2019-03-28T19:59:52.751Z,11.30
2019-03-28T20:02:24.630Z,14.53
2019-03-28T20:04:56.540Z,15.50
2019-03-28T20:07:28.219Z,16.40
2019-03-28T20:09:59.395Z,15.00
2019-03-28T20:12:31.774Z,17.13
2019-03-28T20:15:03.370Z,23.77
2019-03-28T20:17:35.524Z,20.13
2019-03-28T20:20:07.925Z,19.07
2019-03-28T20:22:39.880Z,17.80
2019-03-28T20:25:11.579Z,18.87
2019-03-28T20:27:42.940Z,12.83
2019-03-28T20:30:14.581Z,13.23
2019-03-28T20:32:46.134Z,13.97
2019-03-28T20:35:18.157Z,12.87
2019-03-28T20:37:50.519Z,17.50
2019-03-28T20:40:22.545Z,20.03
2019-03-28T20:42:54.504Z,16.50
2019-03-28T20:45:26.758Z,15.70
2019-03-28T20:51:54.383Z,17.33
2019-03-28T20:54:59.579Z,17.97
2019-03-28T20:58:55.022Z,16.83
2019-03-28T21:08:54.488Z,25.47
2019-03-28T21:12:14.372Z,23.40
2019-03-28T21:15:17.463Z,28.43
2019-03-28T21:22:07.515Z,18.83
2019-03-28T21:25:22.868Z,20.30
2019-03-28T21:28:47.406Z,16.13
2019-03-28T21:32:10.540Z,24.13
2019-03-28T21:38:51.606Z,19.77
2019-03-28T21:45:22.898Z,17.77
2019-03-28T21:48:40.275Z,18.23
2019-03-28T21:51:41.420Z,23.83
2019-03-28T21:54:56.374Z,18.90
2019-03-28T21:58:25.252Z,18.90
2019-03-28T22:04:50.371Z,18.50
2019-03-28T22:07:53.605Z,24.23
2019-03-28T22:14:42.393Z,18.83
2019-03-28T22:20:33.316Z,24.90
2019-03-28T22:23:38.436Z,21.53
2019-03-28T22:27:13.030Z,24.17
2019-03-28T22:30:44.178Z,24.67
2019-03-28T22:34:00.685Z,24.47
2019-03-28T22:37:03.706Z,29.13
2019-03-28T22:40:11.782Z,21.57
2019-03-28T22:43:38.554Z,20.13
2019-03-28T22:46:59.175Z,22.13
2019-03-28T22:53:42.040Z,26.77
2019-03-28T23:00:55.917Z,23.53
2019-03-28T23:03:49.463Z,25.37
2019-03-28T23:10:58.224Z,22.33
2019-03-28T23:14:10.476Z,21.47
2019-03-28T23:16:59.222Z,22.40
2019-03-28T23:23:38.798Z,20.67
2019-03-28T23:26:53.553Z,24.20
2019-03-28T23:30:00.731Z,28.00
2019-03-28T23:33:00.019Z,25.27
2019-03-28T23:36:36.005Z,21.03
2019-03-28T23:39:47.716Z,22.60
2019-03-28T23:45:42.713Z,25.10
2019-03-28T23:49:07.519Z,27.63
2019-03-28T23:52:15.324Z,20.47
2019-03-28T23:55:17.080Z,23.50
2019-03-28T23:58:44.200Z,28.00
